createdAt,value
2022-09-20T00:04:35.608Z,9.2
2022-09-20T00:10:12.879Z,9.1
2022-09-20T16:57:54.266Z,11.6
2022-09-20T17:03:20.799Z,11.6
2022-09-20T17:08:43.396Z,11.5
2022-09-20T17:14:20.760Z,11.4
2022-09-20T17:20:00.869Z,11.3
2022-09-20T17:25:22.392Z,11.1
2022-09-20T17:31:00.601Z,11.1
2022-09-20T17:36:28.680Z,10.9
2022-09-20T17:41:55.686Z,10.8
2022-09-20T17:47:18.275Z,10.7
2022-09-20T17:52:57.662Z,10.8
2022-09-20T17:58:03.683Z,10.8
2022-09-20T18:03:46.863Z,10.7
2022-09-20T18:14:21.418Z,10.4
2022-09-20T18:19:43.358Z,10.2
2022-09-20T18:25:06.402Z,10.1
2022-09-20T18:30:47.461Z,9.9
2022-09-20T18:36:25.282Z,9.8
2022-09-20T18:42:04.324Z,9.6
2022-09-20T18:52:18.099Z,9.1
2022-09-20T18:58:00.748Z,8.9
2022-09-20T19:03:47.101Z,8.6
2022-09-20T19:09:25.252Z,8.4
2022-09-20T19:14:54.618Z,8.1
2022-09-20T19:20:17.173Z,8.1
2022-09-20T19:25:55.415Z,8.4
2022-09-20T19:31:22.477Z,8.3
2022-09-20T19:36:43.943Z,8.4
2022-09-20T19:42:21.452Z,8.4
2022-09-20T19:48:00.205Z,8.5
2022-09-20T19:53:21.872Z,8.4
2022-09-20T19:58:46.116Z,8.3
2022-09-20T20:04:09.944Z,8
2022-09-20T20:09:35.109Z,7.9
2022-09-20T20:14:46.324Z,8
2022-09-20T20:19:53.700Z,8
2022-09-20T20:25:32.108Z,7.9
2022-09-20T20:30:57.854Z,7.8
2022-09-20T20:36:37.685Z,7.8
2022-09-20T20:42:18.766Z,8
2022-09-20T20:47:55.479Z,7.9
2022-09-20T20:53:35.198Z,8.1
2022-09-20T20:58:41.518Z,8.3
2022-09-20T21:04:08.909Z,8.4
